Chetco River@Brookings

Start Stop
DateFlow
CFS
Gauge
Feet
DateFlow
CFS
Gauge
Feet
11/20/2019 07:30207-0.73
11/20/2019 06:30210-0.72
11/20/2019 05:30212-0.71
11/20/2019 04:30215-0.7
11/20/2019 03:30215-0.7
11/20/2019 02:30217-0.69
11/20/2019 01:30217-0.69
11/19/2019 21:30217-0.69
11/19/2019 20:30215-0.7
11/19/2019 19:30212-0.71
11/19/2019 18:30212-0.71
11/19/2019 17:30207-0.73
11/19/2019 16:30204-0.74
11/19/2019 15:30202-0.75
11/19/2019 14:30197-0.77
11/19/2019 13:30194-0.78
11/19/2019 12:30189-0.8
11/19/2019 11:30184-0.82
11/19/2019 10:30182-0.83
11/19/2019 09:30180-0.84
11/19/2019 08:30177-0.85
11/19/2019 07:30175-0.86
11/19/2019 06:30175-0.86
11/19/2019 05:30173-0.87
11/19/2019 04:30170-0.88
11/19/2019 03:30166-0.9
11/19/2019 02:30166-0.9
11/19/2019 01:30164-0.91
11/19/2019 00:30161-0.92
11/18/2019 22:30161-0.92
11/18/2019 21:30159-0.93
11/18/2019 20:30161-0.92
11/18/2019 19:30161-0.92
11/18/2019 18:30157-0.94
11/18/2019 07:30157-0.94
11/18/2019 06:30159-0.93
11/18/2019 00:30159-0.93
11/17/2019 23:30161-0.92
11/17/2019 20:30161-0.92
11/17/2019 19:30164-0.91
11/17/2019 18:30164-0.91
11/17/2019 17:30161-0.92
11/17/2019 16:30164-0.91
11/17/2019 12:30164-0.91
11/17/2019 11:30166-0.9
11/17/2019 06:30166-0.9
11/17/2019 05:30168-0.89
11/17/2019 00:30168-0.89
11/16/2019 23:30170-0.88
11/16/2019 19:30170-0.88
11/16/2019 18:30173-0.87
11/16/2019 15:30173-0.87
11/16/2019 14:30175-0.86
11/16/2019 12:30175-0.86
11/16/2019 11:30177-0.85
11/16/2019 09:30177-0.85
11/16/2019 08:30180-0.84
11/16/2019 07:30180-0.84
11/16/2019 06:30182-0.83
11/16/2019 05:30184-0.82
11/16/2019 04:30187-0.81
11/15/2019 22:30187-0.81
11/15/2019 21:30184-0.82
11/15/2019 20:30184-0.82
11/15/2019 19:30182-0.83
11/15/2019 18:30182-0.83
11/15/2019 17:30180-0.84
11/15/2019 15:30180-0.84
11/15/2019 14:30177-0.85
11/15/2019 13:30177-0.85
11/15/2019 12:30175-0.86
11/15/2019 11:30175-0.86
11/15/2019 10:30173-0.87
11/15/2019 09:30173-0.87
11/15/2019 08:30168-0.89
11/15/2019 07:30166-0.9
11/15/2019 06:30166-0.9
11/15/2019 05:30164-0.91
11/15/2019 04:30161-0.92
11/15/2019 02:30161-0.92
11/15/2019 01:30159-0.93
11/14/2019 15:30159-0.93
11/14/2019 14:30161-0.92
11/14/2019 13:30159-0.93
11/14/2019 12:30161-0.92
11/14/2019 11:30159-0.93
11/14/2019 09:30159-0.93
11/14/2019 08:30161-0.92
11/13/2019 22:30161-0.92
11/13/2019 21:30164-0.91
11/13/2019 07:30164-0.91
11/13/2019 05:30166-0.9
11/13/2019 04:30166-0.9
11/13/2019 03:30164-0.91
11/13/2019 02:30166-0.9
11/12/2019 15:30166-0.9
11/12/2019 14:30168-0.89
11/12/2019 13:30166-0.9
11/12/2019 12:30168-0.89
11/12/2019 11:30166-0.9
11/12/2019 10:30168-0.89
11/12/2019 08:30166-0.9
11/12/2019 07:30166-0.9
11/12/2019 05:30168-0.89
11/12/2019 00:30168-0.89
11/11/2019 23:30170-0.88
11/11/2019 05:30170-0.88
11/11/2019 04:30173-0.87
11/11/2019 03:30170-0.88
11/11/2019 02:30173-0.87
11/10/2019 21:30173-0.87
11/10/2019 20:30175-0.86
11/10/2019 19:30173-0.87
11/10/2019 17:30173-0.87
11/10/2019 16:30175-0.86
11/10/2019 15:30173-0.87
11/10/2019 14:30175-0.86
11/10/2019 10:30175-0.86
11/10/2019 09:30173-0.87
11/10/2019 08:30175-0.86
11/10/2019 07:30175-0.86
11/10/2019 06:30173-0.87
11/10/2019 05:30175-0.86
11/10/2019 04:30175-0.86
11/10/2019 03:30177-0.85
11/10/2019 02:30175-0.86
11/09/2019 23:30175-0.86
11/09/2019 22:30177-0.85
11/09/2019 21:30175-0.86
11/09/2019 20:30177-0.85
11/09/2019 19:30177-0.85
11/09/2019 18:30175-0.86
11/09/2019 17:30177-0.85
11/09/2019 12:30177-0.85
11/09/2019 11:30180-0.84
11/09/2019 10:30180-0.84
11/09/2019 09:30177-0.85
11/09/2019 07:30177-0.85
11/09/2019 06:30180-0.84
11/09/2019 05:30180-0.84
11/09/2019 04:30177-0.85
11/09/2019 03:30180-0.84
11/08/2019 15:30180-0.84
11/08/2019 14:30182-0.83
11/08/2019 13:30182-0.83
11/08/2019 12:30180-0.84
11/08/2019 11:30180-0.84
11/08/2019 10:30182-0.83
11/08/2019 09:30182-0.83
11/08/2019 08:30180-0.84
11/08/2019 07:30182-0.83
11/08/2019 04:30182-0.83
11/08/2019 03:30184-0.82
11/07/2019 18:30184-0.82
11/07/2019 17:30187-0.81
11/07/2019 15:30187-0.81
11/07/2019 14:30184-0.82
11/07/2019 13:30187-0.81
11/07/2019 10:30187-0.81
11/07/2019 09:30184-0.82
11/07/2019 08:30187-0.81
11/07/2019 06:30187-0.81
11/07/2019 05:30189-0.8
11/07/2019 01:30189-0.8
11/07/2019 00:30192-0.79
11/06/2019 12:30192-0.79
11/06/2019 11:30194-0.78
11/06/2019 10:30192-0.79
11/06/2019 09:30194-0.78
11/06/2019 02:30194-0.78
11/06/2019 01:30197-0.77
11/06/2019 00:30194-0.78
11/05/2019 23:30197-0.77
11/05/2019 16:30197-0.77
11/05/2019 15:30199-0.76
11/05/2019 13:30199-0.76
11/05/2019 12:30197-0.77
11/05/2019 11:30199-0.76
11/05/2019 04:30199-0.76
11/05/2019 03:30202-0.75
11/04/2019 21:30202-0.75
11/04/2019 20:30204-0.74
11/04/2019 12:30204-0.74
11/04/2019 11:30207-0.73
11/04/2019 10:30204-0.74
11/04/2019 09:30207-0.73
11/04/2019 08:30204-0.74
11/04/2019 07:30204-0.74
11/04/2019 06:30207-0.73
11/04/2019 00:30207-0.73
11/03/2019 23:30210-0.72
11/03/2019 22:30207-0.73
11/03/2019 21:30210-0.72
11/03/2019 18:30210-0.72
11/03/2019 17:30212-0.71
11/03/2019 05:30212-0.71
11/03/2019 04:30215-0.7
11/03/2019 01:30215-0.7
11/03/2019 00:30217-0.69
11/02/2019 23:30217-0.69
11/02/2019 22:30215-0.7
11/02/2019 21:30217-0.69
11/02/2019 12:30217-0.69
11/02/2019 11:30220-0.68
11/02/2019 10:30220-0.68
11/02/2019 09:30217-0.69
11/02/2019 08:30220-0.68
11/02/2019 03:30220-0.68
11/02/2019 02:30215-0.7
11/02/2019 01:30223-0.67
11/01/2019 22:30223-0.67
11/01/2019 21:30225-0.66
11/01/2019 13:30225-0.66
11/01/2019 11:30228-0.65
11/01/2019 10:30225-0.66
11/01/2019 09:30225-0.66
11/01/2019 08:30228-0.65
11/01/2019 04:30228-0.65
11/01/2019 03:30231-0.64
10/31/2019 21:30231-0.64
10/31/2019 20:30234-0.63
10/31/2019 19:30231-0.64
10/31/2019 18:30234-0.63
10/31/2019 08:30234-0.63
10/31/2019 07:30236-0.62
10/31/2019 02:30236-0.62
10/31/2019 01:30239-0.61
10/30/2019 20:30239-0.61
10/30/2019 19:30242-0.6
10/30/2019 18:30242-0.6
10/30/2019 17:30245-0.59
10/30/2019 15:30245-0.59
10/30/2019 14:30242-0.6
10/30/2019 13:30245-0.59
10/30/2019 07:30245-0.59
10/30/2019 06:30248-0.58
10/30/2019 04:30248-0.58
10/30/2019 03:30250-0.57
10/30/2019 02:30248-0.58
10/30/2019 01:30250-0.57
10/29/2019 23:30250-0.57
10/29/2019 22:30253-0.56
10/29/2019 21:30250-0.57
10/29/2019 20:30253-0.56
10/29/2019 19:30253-0.56
10/29/2019 18:30256-0.55
10/29/2019 14:30256-0.55
10/29/2019 13:30259-0.54
10/29/2019 12:30259-0.54
10/29/2019 11:30262-0.53
10/29/2019 10:30262-0.53
10/29/2019 09:30259-0.54
10/29/2019 08:30259-0.54
10/29/2019 07:30262-0.53
10/29/2019 02:30262-0.53
10/29/2019 01:30265-0.52
10/28/2019 22:30265-0.52
10/28/2019 21:30268-0.51
10/28/2019 15:30268-0.51
10/28/2019 14:30271-0.5
10/28/2019 06:30271-0.5
10/28/2019 05:30274-0.49
10/28/2019 01:30274-0.49
10/28/2019 00:30277-0.48
10/27/2019 22:30277-0.48
10/27/2019 21:30280-0.47
10/27/2019 20:30277-0.48
10/27/2019 19:30280-0.47
10/27/2019 17:30280-0.47
10/27/2019 16:30283-0.46
10/27/2019 15:30286-0.45
10/27/2019 14:30283-0.46
10/27/2019 13:30286-0.45
10/27/2019 12:30286-0.45
10/27/2019 11:30289-0.44
10/27/2019 10:30286-0.45
10/27/2019 09:30286-0.45
10/27/2019 08:30289-0.44
10/27/2019 07:30292-0.43
10/27/2019 06:30292-0.43
10/27/2019 05:30289-0.44
10/27/2019 04:30295-0.42
10/27/2019 01:30295-0.42
10/27/2019 00:30299-0.41
10/26/2019 23:30295-0.42
10/26/2019 22:30299-0.41
10/26/2019 21:30299-0.41
10/26/2019 20:30302-0.4
10/26/2019 19:30302-0.4
10/26/2019 18:30305-0.39
10/26/2019 17:30302-0.4
10/26/2019 16:30308-0.38
10/26/2019 14:30308-0.38
10/26/2019 13:30311-0.37
10/26/2019 12:30311-0.37
10/26/2019 11:30314-0.36
10/26/2019 08:30314-0.36
10/26/2019 07:30318-0.35
10/26/2019 06:30321-0.34
10/26/2019 04:30321-0.34
10/26/2019 03:30324-0.33
10/26/2019 02:30321-0.34
10/26/2019 01:30324-0.33
10/26/2019 00:30324-0.33
10/25/2019 23:30328-0.32
10/25/2019 22:30328-0.32
10/25/2019 21:30331-0.31
10/25/2019 17:30331-0.31
10/25/2019 16:30334-0.3
10/25/2019 15:30338-0.29
10/25/2019 13:30338-0.29
10/25/2019 12:30341-0.28
10/25/2019 11:30338-0.29
10/25/2019 10:30341-0.28
10/25/2019 07:30341-0.28
10/25/2019 06:30344-0.27
10/25/2019 05:30348-0.26
10/25/2019 03:30348-0.26
10/25/2019 02:30351-0.25
10/25/2019 01:30351-0.25
10/25/2019 00:30355-0.24
10/24/2019 23:30355-0.24
10/24/2019 22:30358-0.23
10/24/2019 21:30358-0.23
10/24/2019 20:30362-0.22
10/24/2019 19:30365-0.21
10/24/2019 18:30365-0.21
10/24/2019 17:30369-0.2
10/24/2019 16:30369-0.2
10/24/2019 15:30372-0.19
10/24/2019 14:30369-0.2
10/24/2019 13:30372-0.19
10/24/2019 12:30372-0.19
10/24/2019 11:30376-0.18
10/24/2019 10:30376-0.18
10/24/2019 09:30379-0.17
10/24/2019 08:30376-0.18
10/24/2019 07:30379-0.17
10/24/2019 06:30383-0.16
10/24/2019 05:30387-0.15
10/24/2019 04:30387-0.15
10/24/2019 03:30390-0.14
10/24/2019 01:30390-0.14
10/24/2019 00:30394-0.13
10/23/2019 23:30398-0.12
10/23/2019 22:30398-0.12
10/23/2019 21:30401-0.11
10/23/2019 20:30405-0.1
10/23/2019 19:30405-0.1
10/23/2019 18:30413-0.08
10/23/2019 17:30416-0.07
10/23/2019 16:30416-0.07
10/23/2019 15:30420-0.06
10/23/2019 14:30424-0.05
10/23/2019 12:30424-0.05
10/23/2019 11:30432-0.03
10/23/2019 09:30432-0.03
10/23/2019 08:30439-0.01
10/23/2019 06:30439-0.01
10/23/2019 05:304430
10/23/2019 04:304470.01
10/23/2019 03:304510.02
10/23/2019 02:304510.02
10/23/2019 01:304550.03
10/23/2019 00:304590.04
10/22/2019 23:304630.05
10/22/2019 22:304630.05
10/22/2019 21:304710.07
10/22/2019 20:304750.08
10/22/2019 19:304790.09
10/22/2019 18:304790.09
10/22/2019 17:304830.1
10/22/2019 16:304880.11
10/22/2019 15:304880.11
10/22/2019 14:304960.13
10/22/2019 13:304960.13
10/22/2019 12:305000.14
10/22/2019 11:305040.15
10/22/2019 10:305080.16
10/22/2019 09:305080.16
10/22/2019 08:305130.17
10/22/2019 07:305210.19
10/22/2019 06:305210.19
10/22/2019 05:305300.21
10/22/2019 04:305340.22
10/22/2019 03:305380.23
10/22/2019 02:305470.25
10/22/2019 01:305520.26
10/22/2019 00:305560.27
10/21/2019 23:305650.29
10/21/2019 22:305690.3
10/21/2019 21:305790.32
10/21/2019 20:305830.33
10/21/2019 19:305920.35
10/21/2019 18:305970.36
10/21/2019 17:306110.39
10/21/2019 16:306110.39
10/21/2019 15:306150.4
10/21/2019 14:306250.42
10/21/2019 13:306300.43
10/21/2019 12:306340.44
10/21/2019 11:306490.47
10/21/2019 10:306580.49

Start Stop